createdAt,value
2023-03-26T00:00:44.279Z,1.17
2023-03-26T00:03:12.291Z,1.45
2023-03-26T00:05:41.648Z,0.60
2023-03-26T00:08:09.871Z,0.80
2023-03-26T00:10:37.869Z,4.28
2023-03-26T00:13:05.881Z,1.23
2023-03-26T00:15:33.510Z,0.88
2023-03-26T00:18:00.772Z,0.65
2023-03-26T00:20:29.723Z,0.50
2023-03-26T00:22:56.467Z,0.80
2023-03-26T00:25:26.043Z,0.80
2023-03-26T00:27:52.624Z,0.75
2023-03-26T00:30:19.612Z,0.60
2023-03-26T00:32:53.968Z,0.50
2023-03-26T00:35:22.461Z,0.50
2023-03-26T00:37:51.528Z,0.60
2023-03-26T00:40:18.258Z,0.65
2023-03-26T00:42:44.877Z,1.50
2023-03-26T00:45:11.596Z,0.90
2023-03-26T00:47:40.111Z,0.60
2023-03-26T00:50:15.334Z,0.60
2023-03-26T00:52:46.247Z,0.60
2023-03-26T00:55:13.430Z,0.40
2023-03-26T00:57:40.665Z,0.60
2023-03-26T01:00:17.032Z,0.70
2023-03-26T01:02:47.259Z,0.70
2023-03-26T01:05:34.087Z,0.60
2023-03-26T01:08:22.660Z,0.80
2023-03-26T01:10:53.279Z,0.50
2023-03-26T01:13:23.427Z,0.50
2023-03-26T01:15:51.205Z,0.82
2023-03-26T01:18:26.360Z,0.75
2023-03-26T01:21:05.347Z,0.50
2023-03-26T01:23:47.017Z,0.50
2023-03-26T01:26:29.705Z,0.90
2023-03-26T01:28:59.886Z,0.63
2023-03-26T01:31:47.520Z,0.77
2023-03-26T01:34:50.366Z,0.80
2023-03-26T01:37:27.228Z,0.68
2023-03-26T01:39:56.948Z,0.73
2023-03-26T01:42:35.402Z,0.70
2023-03-26T01:45:15.535Z,0.73
2023-03-26T01:47:43.047Z,0.63
2023-03-26T01:50:10.006Z,0.55
2023-03-26T01:52:36.768Z,0.30
2023-03-26T01:55:04.286Z,0.40
2023-03-26T01:57:52.157Z,0.50
2023-03-26T02:00:28.503Z,0.35
2023-03-26T02:03:24.291Z,0.40
2023-03-26T02:05:57.949Z,0.60
2023-03-26T02:08:57.208Z,0.47
2023-03-26T02:11:33.588Z,0.57
2023-03-26T02:14:03.458Z,0.45
2023-03-26T02:16:30.023Z,0.40
2023-03-26T02:18:59.239Z,0.50
2023-03-26T02:21:27.151Z,0.57
2023-03-26T02:24:03.180Z,0.70
2023-03-26T02:26:32.425Z,0.60
2023-03-26T02:28:59.812Z,0.50
2023-03-26T02:31:30.252Z,0.70
2023-03-26T02:33:57.327Z,0.50
2023-03-26T02:36:27.528Z,1.05
2023-03-26T02:38:55.785Z,0.70
2023-03-26T02:41:22.433Z,0.60
2023-03-26T02:43:49.320Z,0.50
2023-03-26T02:46:16.119Z,0.40
2023-03-26T02:48:44.032Z,0.50
2023-03-26T02:51:10.631Z,0.50
2023-03-26T02:53:37.652Z,0.40
2023-03-26T02:56:04.541Z,0.60
2023-03-26T02:58:31.149Z,0.50
2023-03-26T03:00:57.797Z,0.60
2023-03-26T03:03:26.726Z,0.70
2023-03-26T03:05:55.078Z,0.50
2023-03-26T03:08:24.723Z,0.63
2023-03-26T03:10:57.334Z,0.40
2023-03-26T03:13:23.959Z,0.60
2023-03-26T03:15:50.699Z,0.80
2023-03-26T03:18:17.293Z,0.77
2023-03-26T03:20:44.693Z,0.70
2023-03-26T03:23:11.530Z,0.52
2023-03-26T03:25:41.322Z,0.70
2023-03-26T03:28:08.103Z,0.40
2023-03-26T03:30:35.815Z,0.50
2023-03-26T03:33:03.102Z,0.40
2023-03-26T03:35:30.440Z,0.52
2023-03-26T03:37:58.254Z,0.40
2023-03-26T03:40:25.810Z,0.60
2023-03-26T03:42:52.402Z,0.60
2023-03-26T03:45:19.132Z,0.40
2023-03-26T03:47:45.928Z,0.40
2023-03-26T03:50:12.551Z,0.40
2023-03-26T03:52:39.149Z,0.40
2023-03-26T03:55:06.137Z,0.52
2023-03-26T03:57:34.740Z,0.85
2023-03-26T04:00:01.556Z,0.40
2023-03-26T04:02:34.704Z,0.40
2023-03-26T04:05:03.008Z,0.40
2023-03-26T04:07:31.248Z,0.52
2023-03-26T04:10:00.067Z,0.30
2023-03-26T04:12:30.627Z,0.55
2023-03-26T04:14:57.976Z,0.50
2023-03-26T04:17:24.947Z,0.47
2023-03-26T04:19:55.071Z,0.60
2023-03-26T04:22:23.582Z,0.50
2023-03-26T04:24:50.265Z,0.60
2023-03-26T04:27:25.633Z,0.55
2023-03-26T04:29:52.350Z,0.50
2023-03-26T04:32:35.801Z,0.50
2023-03-26T04:35:06.809Z,0.63
2023-03-26T04:37:42.534Z,0.45
2023-03-26T04:40:15.309Z,0.40
2023-03-26T04:42:46.383Z,0.50
2023-03-26T04:45:18.012Z,0.80
2023-03-26T04:47:46.447Z,0.68
2023-03-26T04:50:13.350Z,0.70
2023-03-26T04:52:41.626Z,0.70
2023-03-26T04:55:25.529Z,0.70
2023-03-26T04:57:59.787Z,0.43
2023-03-26T05:00:28.484Z,0.50
2023-03-26T05:02:57.849Z,0.70
2023-03-26T05:05:26.115Z,0.82
2023-03-26T05:07:52.798Z,0.60
2023-03-26T05:10:22.700Z,0.70
2023-03-26T05:12:49.463Z,0.65
2023-03-26T05:15:16.745Z,1.48
2023-03-26T05:17:43.534Z,0.70
2023-03-26T05:20:30.307Z,0.70
2023-03-26T05:22:57.120Z,0.60
2023-03-26T05:25:23.782Z,0.50
2023-03-26T05:27:50.532Z,0.60
2023-03-26T05:30:20.727Z,0.50
2023-03-26T05:32:52.146Z,0.65
2023-03-26T05:35:19.712Z,0.57
2023-03-26T05:37:47.394Z,0.57
2023-03-26T05:40:17.072Z,0.70
2023-03-26T05:42:44.192Z,0.90
2023-03-26T05:45:13.153Z,0.68
2023-03-26T05:47:39.758Z,0.65
2023-03-26T05:50:07.620Z,0.85
2023-03-26T05:52:34.359Z,0.90
2023-03-26T05:55:01.013Z,1.70
2023-03-26T05:57:30.386Z,1.90
2023-03-26T05:59:57.014Z,1.67
2023-03-26T06:02:23.900Z,1.20
2023-03-26T06:04:51.005Z,0.73
2023-03-26T06:07:18.257Z,1.60
2023-03-26T06:09:45.330Z,1.67
2023-03-26T06:12:12.147Z,0.73
2023-03-26T06:14:38.859Z,0.70
2023-03-26T06:17:05.438Z,0.50
2023-03-26T06:19:32.032Z,0.60
2023-03-26T06:21:58.630Z,0.70
2023-03-26T06:24:25.360Z,0.63
2023-03-26T06:26:52.669Z,0.77
2023-03-26T06:29:19.429Z,1.00
2023-03-26T06:31:46.321Z,0.80
2023-03-26T06:34:13.111Z,0.47
2023-03-26T06:36:39.707Z,0.40
2023-03-26T06:39:07.808Z,0.35
2023-03-26T06:41:35.491Z,0.85
2023-03-26T06:44:02.276Z,1.20
2023-03-26T06:46:29.105Z,1.20
2023-03-26T06:48:55.732Z,0.90
2023-03-26T06:51:22.277Z,0.80
2023-03-26T06:53:48.855Z,0.80
2023-03-26T06:56:15.605Z,0.82
2023-03-26T06:58:42.150Z,0.50
2023-03-26T07:01:08.851Z,0.50
2023-03-26T07:03:35.634Z,0.32
2023-03-26T07:06:02.304Z,0.40
2023-03-26T07:08:28.894Z,0.70
2023-03-26T07:10:55.714Z,1.10
2023-03-26T07:13:22.773Z,1.00
2023-03-26T07:15:49.475Z,0.60
2023-03-26T07:18:16.211Z,0.40
2023-03-26T07:20:44.910Z,0.50
2023-03-26T07:23:12.423Z,0.38
2023-03-26T07:25:39.401Z,0.50
2023-03-26T07:28:24.334Z,0.60
2023-03-26T07:31:27.988Z,0.85
2023-03-26T07:34:32.821Z,0.52
2023-03-26T07:37:11.083Z,0.50
2023-03-26T07:40:03.073Z,0.50
2023-03-26T07:42:41.555Z,0.43
2023-03-26T07:45:26.094Z,0.32
2023-03-26T07:47:53.668Z,0.60
2023-03-26T07:50:23.023Z,0.70
2023-03-26T07:52:49.951Z,0.20
2023-03-26T07:55:17.483Z,0.20
2023-03-26T07:57:58.486Z,0.50
2023-03-26T08:00:39.357Z,0.40
2023-03-26T08:03:17.107Z,0.40
2023-03-26T08:05:59.069Z,0.20
2023-03-26T08:08:48.742Z,0.35
2023-03-26T08:11:24.742Z,0.68
2023-03-26T08:14:19.292Z,0.60
2023-03-26T08:16:56.084Z,0.40
2023-03-26T08:19:35.041Z,0.40
2023-03-26T08:22:26.233Z,0.47
2023-03-26T08:25:12.031Z,0.57
2023-03-26T08:27:48.127Z,0.50
2023-03-26T08:30:18.893Z,0.38
2023-03-26T08:32:54.356Z,0.60
2023-03-26T08:35:21.383Z,0.63
2023-03-26T08:37:48.052Z,0.60
2023-03-26T08:40:29.968Z,0.75
2023-03-26T08:43:09.287Z,0.60
2023-03-26T08:45:44.581Z,0.60
2023-03-26T08:48:45.523Z,0.45
2023-03-26T08:51:43.115Z,0.30
2023-03-26T08:54:41.286Z,0.77
2023-03-26T08:57:43.688Z,0.45
2023-03-26T09:00:28.728Z,0.40
2023-03-26T09:03:04.425Z,0.50
2023-03-26T09:05:55.252Z,0.60
2023-03-26T09:08:53.924Z,0.68
2023-03-26T09:11:47.214Z,0.40
2023-03-26T09:14:30.295Z,0.63
2023-03-26T09:17:08.999Z,0.47
2023-03-26T09:20:13.755Z,0.68
2023-03-26T09:23:13.392Z,0.43
2023-03-26T09:25:58.498Z,0.35
2023-03-26T09:28:58.509Z,0.40
2023-03-26T09:31:45.525Z,0.50
2023-03-26T09:34:18.010Z,0.65
2023-03-26T09:37:05.863Z,0.45
2023-03-26T09:39:44.394Z,0.60
2023-03-26T09:42:24.358Z,0.30
2023-03-26T09:45:10.589Z,0.63
2023-03-26T09:48:09.219Z,0.20
2023-03-26T09:50:56.186Z,0.35
2023-03-26T09:53:44.664Z,0.50
2023-03-26T09:56:32.781Z,0.45
2023-03-26T09:59:20.801Z,0.40
2023-03-26T10:02:15.508Z,0.30
2023-03-26T10:05:13.643Z,0.40
2023-03-26T10:08:06.689Z,0.38
2023-03-26T10:11:03.057Z,0.37
2023-03-26T10:13:52.857Z,0.35
2023-03-26T10:16:34.393Z,0.60
2023-03-26T10:19:20.306Z,0.40
2023-03-26T10:22:05.710Z,0.30
2023-03-26T10:24:59.085Z,0.40
2023-03-26T10:27:44.079Z,0.30
2023-03-26T10:30:22.574Z,0.30
2023-03-26T10:33:02.859Z,0.20
2023-03-26T10:35:53.571Z,0.20
2023-03-26T10:38:45.424Z,0.32
2023-03-26T10:41:15.178Z,0.25
2023-03-26T10:44:17.202Z,0.20
2023-03-26T10:47:01.228Z,0.28
2023-03-26T10:49:39.889Z,0.30
2023-03-26T10:52:16.322Z,0.17
2023-03-26T10:54:53.550Z,0.20
2023-03-26T10:57:37.016Z,0.20
2023-03-26T11:00:14.962Z,0.20
2023-03-26T11:03:19.227Z,0.30
2023-03-26T11:06:15.973Z,0.20
2023-03-26T11:08:57.412Z,0.20
2023-03-26T11:11:38.750Z,0.30
2023-03-26T11:14:51.498Z,0.50
2023-03-26T11:17:42.288Z,0.35
2023-03-26T11:20:41.159Z,0.13
2023-03-26T11:23:07.732Z,0.30
2023-03-26T11:26:02.057Z,0.20
2023-03-26T11:29:03.634Z,0.30
2023-03-26T11:32:05.292Z,0.47
2023-03-26T11:34:41.966Z,0.30
2023-03-26T11:37:17.646Z,0.30
2023-03-26T11:39:55.116Z,0.50
2023-03-26T11:42:24.545Z,0.30
2023-03-26T11:45:04.598Z,0.35
2023-03-26T11:47:37.694Z,0.22
2023-03-26T11:50:07.297Z,0.45
2023-03-26T11:52:33.923Z,0.30
2023-03-26T11:55:00.539Z,0.20
2023-03-26T11:57:33.257Z,0.28
2023-03-26T11:59:59.993Z,0.30
2023-03-26T12:02:29.762Z,0.30
2023-03-26T12:05:21.928Z,0.45
2023-03-26T12:07:56.889Z,0.35
2023-03-26T12:10:43.708Z,0.20
2023-03-26T12:13:37.203Z,0.30
2023-03-26T12:16:15.396Z,0.25
2023-03-26T12:18:44.593Z,0.35
2023-03-26T12:21:15.866Z,0.32
2023-03-26T12:23:50.949Z,0.10
2023-03-26T12:26:21.134Z,0.30
2023-03-26T12:28:51.311Z,0.40
2023-03-26T12:31:19.427Z,0.38
2023-03-26T12:34:04.092Z,0.22
2023-03-26T12:36:33.617Z,0.20
2023-03-26T12:40:05.887Z,0.47
2023-03-26T12:44:42.674Z,0.30
2023-03-26T12:44:58.968Z,0.40
2023-03-26T12:47:57.523Z,0.50
2023-03-26T12:50:34.554Z,0.60
2023-03-26T12:53:46.329Z,0.65
2023-03-26T12:56:36.381Z,0.60
2023-03-26T12:59:40.675Z,0.70
2023-03-26T13:05:07.248Z,0.50
2023-03-26T13:07:34.280Z,0.50
2023-03-26T13:10:23.670Z,0.45
2023-03-26T13:13:18.701Z,0.50
2023-03-26T13:15:54.023Z,0.52
2023-03-26T13:18:51.926Z,0.60
2023-03-26T13:21:53.493Z,0.52
2023-03-26T13:24:39.534Z,0.70
2023-03-26T13:27:35.382Z,0.80
2023-03-26T13:30:25.513Z,0.80
2023-03-26T13:33:14.715Z,0.77
2023-03-26T13:35:47.471Z,0.70
2023-03-26T13:38:20.484Z,0.85
2023-03-26T13:40:47.138Z,0.80
2023-03-26T13:43:44.812Z,0.60
2023-03-26T13:46:22.331Z,0.68
2023-03-26T13:49:00.287Z,0.73
2023-03-26T13:51:35.260Z,0.73
2023-03-26T13:54:21.577Z,0.73
2023-03-26T13:56:58.758Z,1.00
2023-03-26T13:59:41.664Z,0.85
2023-03-26T14:02:24.545Z,0.77
2023-03-26T14:05:30.391Z,0.70
2023-03-26T14:08:05.862Z,0.80
2023-03-26T14:10:38.639Z,1.00
2023-03-26T14:13:16.401Z,1.00
2023-03-26T14:15:55.853Z,0.90
2023-03-26T14:18:37.429Z,0.80
2023-03-26T14:21:36.614Z,0.80
2023-03-26T14:24:12.293Z,1.00
2023-03-26T14:27:00.800Z,0.75
2023-03-26T14:29:58.309Z,0.88
2023-03-26T14:32:30.857Z,0.88
2023-03-26T14:35:13.411Z,0.75
2023-03-26T14:38:19.236Z,0.80
2023-03-26T14:41:22.898Z,1.20
2023-03-26T14:44:47.988Z,0.70
2023-03-26T14:47:17.834Z,0.70
2023-03-26T14:50:20.218Z,1.10
2023-03-26T14:52:52.234Z,0.75
2023-03-26T14:55:54.755Z,1.10
2023-03-26T14:58:37.666Z,1.08
2023-03-26T15:01:10.112Z,0.90
2023-03-26T15:03:58.231Z,1.00
2023-03-26T15:06:25.303Z,1.05
2023-03-26T15:09:13.827Z,0.88
2023-03-26T15:11:52.254Z,0.90
2023-03-26T15:14:37.037Z,1.00
2023-03-26T15:17:12.700Z,0.98
2023-03-26T15:20:05.102Z,1.08
2023-03-26T15:22:49.711Z,0.90
2023-03-26T15:25:54.257Z,1.20
2023-03-26T15:28:39.455Z,1.15
2023-03-26T15:31:09.888Z,1.20
2023-03-26T15:33:48.786Z,1.00
2023-03-26T15:36:53.307Z,1.23
2023-03-26T15:39:59.164Z,1.10
2023-03-26T15:42:36.738Z,1.23
2023-03-26T15:45:13.913Z,1.17
2023-03-26T15:47:56.200Z,1.20
2023-03-26T15:50:31.133Z,1.15
2023-03-26T15:53:12.797Z,1.10
2023-03-26T15:55:57.810Z,1.50
2023-03-26T15:58:36.874Z,1.50
2023-03-26T16:01:19.093Z,1.50
2023-03-26T16:04:09.229Z,1.00
2023-03-26T16:06:59.160Z,1.30
2023-03-26T16:09:34.117Z,1.63
2023-03-26T16:12:24.968Z,1.25
2023-03-26T16:15:07.397Z,1.50
2023-03-26T16:18:05.272Z,1.00
2023-03-26T16:20:46.775Z,1.20
2023-03-26T16:23:24.453Z,1.02
2023-03-26T16:26:07.690Z,1.20
2023-03-26T16:28:35.970Z,1.05
2023-03-26T16:31:10.818Z,1.02
2023-03-26T16:34:40.854Z,1.10
2023-03-26T16:37:29.919Z,1.05
2023-03-26T16:40:16.678Z,1.08
2023-03-26T16:43:01.238Z,0.93
2023-03-26T16:45:35.178Z,0.82
2023-03-26T16:48:16.910Z,0.95
2023-03-26T16:50:59.158Z,0.50
2023-03-26T16:53:51.949Z,0.50
2023-03-26T16:56:47.583Z,0.40
2023-03-26T17:00:06.302Z,0.60
2023-03-26T17:02:56.863Z,0.70
2023-03-26T17:05:56.514Z,0.60
2023-03-26T17:09:05.918Z,0.40
2023-03-26T17:11:38.626Z,0.80
2023-03-26T17:14:26.703Z,0.30
2023-03-26T17:17:26.866Z,0.60
2023-03-26T17:20:04.200Z,0.50
2023-03-26T17:22:43.233Z,0.40
2023-03-26T17:25:28.443Z,0.50
2023-03-26T17:28:24.052Z,0.40
2023-03-26T17:31:15.929Z,0.40
2023-03-26T17:33:43.203Z,0.40
2023-03-26T17:36:12.670Z,0.35
2023-03-26T17:38:39.307Z,0.30
2023-03-26T17:41:07.920Z,0.50
2023-03-26T17:43:43.563Z,0.40
2023-03-26T17:46:48.348Z,0.60
2023-03-26T17:49:22.310Z,0.50
2023-03-26T17:51:58.095Z,0.45
2023-03-26T17:54:34.691Z,0.60
2023-03-26T17:57:06.173Z,0.40
2023-03-26T17:59:33.761Z,0.70
2023-03-26T18:02:05.477Z,0.40
2023-03-26T18:04:38.986Z,0.40
2023-03-26T18:07:26.086Z,0.30
2023-03-26T18:10:13.022Z,0.30
2023-03-26T18:12:54.085Z,0.40
2023-03-26T18:15:26.416Z,0.30
2023-03-26T18:18:03.218Z,0.43
2023-03-26T18:20:30.015Z,0.40
2023-03-26T18:22:57.646Z,0.60
2023-03-26T18:25:32.686Z,0.50
2023-03-26T18:28:02.048Z,0.50
2023-03-26T18:30:29.357Z,0.50
2023-03-26T18:33:13.748Z,0.30
2023-03-26T18:35:49.688Z,0.43
2023-03-26T18:38:35.531Z,0.30
2023-03-26T18:41:08.087Z,0.32
2023-03-26T18:43:44.584Z,0.50
2023-03-26T18:46:14.553Z,0.50
2023-03-26T18:48:41.945Z,0.40
2023-03-26T18:51:09.812Z,0.40
2023-03-26T18:53:40.924Z,0.50
2023-03-26T18:56:33.747Z,0.45
2023-03-26T18:59:02.752Z,0.40
2023-03-26T19:01:32.251Z,0.52
2023-03-26T19:04:05.921Z,0.70
2023-03-26T19:09:23.669Z,0.80
2023-03-26T19:11:57.763Z,0.75
2023-03-26T19:14:26.126Z,0.50
2023-03-26T19:16:59.847Z,0.50
2023-03-26T19:19:39.651Z,0.43
2023-03-26T19:22:08.903Z,0.70
2023-03-26T19:24:36.259Z,0.45
2023-03-26T19:27:04.132Z,0.50
2023-03-26T19:29:36.216Z,0.32
2023-03-26T19:32:06.774Z,0.30
2023-03-26T19:34:40.186Z,0.60
2023-03-26T19:37:21.420Z,0.30
2023-03-26T19:40:09.828Z,0.60
2023-03-26T19:42:43.652Z,0.60
2023-03-26T19:45:23.103Z,0.60
2023-03-26T19:47:57.320Z,0.40
2023-03-26T19:50:30.096Z,0.30
2023-03-26T19:53:18.895Z,0.50
2023-03-26T19:56:05.192Z,0.38
2023-03-26T19:58:32.880Z,0.55
2023-03-26T20:00:59.615Z,0.50
2023-03-26T20:03:44.441Z,0.70
2023-03-26T20:06:13.414Z,0.40
2023-03-26T20:08:40.696Z,0.65
2023-03-26T20:11:15.010Z,0.50
2023-03-26T20:13:41.570Z,0.30
2023-03-26T20:16:29.036Z,0.47
2023-03-26T20:18:57.288Z,0.50
2023-03-26T20:21:25.538Z,0.45
2023-03-26T20:23:55.638Z,0.47
2023-03-26T20:26:24.067Z,0.55
2023-03-26T20:28:53.533Z,0.50
2023-03-26T20:31:25.014Z,0.40
2023-03-26T20:33:53.370Z,0.60
2023-03-26T20:36:33.856Z,0.40
2023-03-26T20:39:03.078Z,0.50
2023-03-26T20:41:29.747Z,0.30
2023-03-26T20:43:56.949Z,0.80
2023-03-26T20:46:30.860Z,0.57
2023-03-26T20:48:59.707Z,0.40
2023-03-26T20:51:28.601Z,0.60
2023-03-26T20:53:56.203Z,0.60
2023-03-26T20:56:23.466Z,0.50
2023-03-26T20:59:03.710Z,0.45
2023-03-26T21:01:34.901Z,0.50
2023-03-26T21:04:04.356Z,0.50
2023-03-26T21:06:31.547Z,0.50
2023-03-26T21:08:58.463Z,0.40
2023-03-26T21:11:56.502Z,0.68
2023-03-26T21:14:26.900Z,0.40
2023-03-26T21:16:53.791Z,0.43
2023-03-26T21:19:20.582Z,0.70
2023-03-26T21:21:50.879Z,0.40
2023-03-26T21:24:21.985Z,0.60
2023-03-26T21:27:08.481Z,0.60
2023-03-26T21:29:35.303Z,0.57
2023-03-26T21:32:02.193Z,0.45
2023-03-26T21:34:29.399Z,0.40
2023-03-26T21:36:56.264Z,0.60
2023-03-26T21:39:23.298Z,0.60
2023-03-26T21:42:04.807Z,0.40
2023-03-26T21:44:33.252Z,0.40
2023-03-26T21:47:00.359Z,0.50
2023-03-26T21:49:27.357Z,0.55
2023-03-26T21:51:54.338Z,0.60
2023-03-26T21:54:29.704Z,0.68
2023-03-26T21:57:30.552Z,0.60
2023-03-26T22:00:18.509Z,0.45
2023-03-26T22:02:51.219Z,0.73
2023-03-26T22:05:21.058Z,0.70
2023-03-26T22:07:58.717Z,0.80
2023-03-26T22:10:25.355Z,0.50
2023-03-26T22:12:51.981Z,0.50
2023-03-26T22:15:20.051Z,0.50
2023-03-26T22:17:54.189Z,0.50
2023-03-26T22:20:25.656Z,0.50
2023-03-26T22:22:53.392Z,0.40
2023-03-26T22:25:21.946Z,0.60
2023-03-26T22:27:50.762Z,0.55
2023-03-26T22:30:18.913Z,0.50
2023-03-26T22:32:45.750Z,0.80
2023-03-26T22:35:13.052Z,0.60
2023-03-26T22:37:40.532Z,0.50
2023-03-26T22:40:08.857Z,0.60
2023-03-26T22:42:36.362Z,0.30
2023-03-26T22:45:04.133Z,0.40
2023-03-26T22:47:33.737Z,0.40
2023-03-26T22:50:00.769Z,0.70
2023-03-26T22:52:28.019Z,0.43
2023-03-26T22:54:54.753Z,0.68
2023-03-26T22:57:24.115Z,0.60
2023-03-26T22:59:50.847Z,0.45
2023-03-26T23:02:18.313Z,0.50
2023-03-26T23:04:46.305Z,0.73
2023-03-26T23:07:13.120Z,0.80
2023-03-26T23:09:39.723Z,0.70
2023-03-26T23:12:06.744Z,0.40
2023-03-26T23:14:33.373Z,0.50
2023-03-26T23:17:00.538Z,0.60
2023-03-26T23:19:27.132Z,0.50
2023-03-26T23:21:53.722Z,0.60
2023-03-26T23:24:20.263Z,0.38
2023-03-26T23:26:51.095Z,0.73
2023-03-26T23:29:18.343Z,0.52
2023-03-26T23:31:44.981Z,0.50
2023-03-26T23:34:13.546Z,0.60
2023-03-26T23:36:40.915Z,0.50
2023-03-26T23:39:08.420Z,0.50
2023-03-26T23:41:35.612Z,0.63
2023-03-26T23:44:02.255Z,0.45
2023-03-26T23:46:34.904Z,0.55
2023-03-26T23:49:04.497Z,0.60
2023-03-26T23:51:31.917Z,0.90
2023-03-26T23:53:59.846Z,0.60
2023-03-26T23:56:32.878Z,0.68
2023-03-26T23:59:00.643Z,0.60
